Terminal Aerodrome Forecast
Issued by NWS

Home | Current Version | Previous Version | Text Only | Print | Product List | Glossary On
Versions: 1 2 3 4 5 6 7 8 9 10 11 12 13 14 15 16 17 18 19 20 21 22 23 24
772
FTUS43 KDLH 232051 AAA
TAFHIB
TAF AMD
KHIB 232051Z 2321/2418 35005KT P6SM SCT040
     FM232300 34005KT P6SM -RA OVC060
     FM240300 VRB03KT P6SM BKN080
     FM240900 00000KT 4SM BR FEW001
     FM241300 09003KT P6SM SKC=

USA.gov is the U.S. government's official web portal to all federal, state and local government web resources and services.